createdAt,value
2023-02-02T00:00:52.830Z,60.00
2023-02-02T00:03:19.557Z,60.30
2023-02-02T00:05:47.078Z,60.10
2023-02-02T00:08:15.348Z,59.90
2023-02-02T00:10:42.347Z,59.80
2023-02-02T00:13:09.357Z,59.80
2023-02-02T00:15:36.306Z,59.80
2023-02-02T00:18:03.562Z,59.70
2023-02-02T00:20:30.460Z,59.50
2023-02-02T00:22:57.193Z,59.30
2023-02-02T00:25:25.416Z,59.20
2023-02-02T00:27:52.309Z,59.10
2023-02-02T00:30:19.404Z,59.20
2023-02-02T00:32:46.066Z,59.10
2023-02-02T00:35:12.734Z,59.20
2023-02-02T00:37:39.366Z,59.40
2023-02-02T00:40:07.529Z,59.30
2023-02-02T00:42:35.520Z,58.80
2023-02-02T00:45:02.435Z,58.90
2023-02-02T00:47:29.115Z,58.80
2023-02-02T00:49:55.779Z,59.00
2023-02-02T00:52:22.461Z,59.20
2023-02-02T00:54:49.145Z,58.90
2023-02-02T00:57:16.152Z,59.00
2023-02-02T00:59:44.163Z,59.10
2023-02-02T01:02:11.118Z,59.30
2023-02-02T01:04:38.234Z,59.30
2023-02-02T01:07:05.378Z,59.00
2023-02-02T01:09:32.079Z,58.90
2023-02-02T01:11:58.756Z,59.00
2023-02-02T01:14:25.723Z,59.00
2023-02-02T01:16:53.809Z,59.30
2023-02-02T01:19:20.478Z,59.40
2023-02-02T01:21:47.215Z,59.30
2023-02-02T01:24:13.857Z,59.20
2023-02-02T01:26:40.512Z,59.30
2023-02-02T01:29:07.180Z,59.20
2023-02-02T01:31:33.870Z,59.30
2023-02-02T01:34:01.967Z,59.30
2023-02-02T01:36:29.330Z,59.10
2023-02-02T01:38:56.064Z,59.00
2023-02-02T01:41:24.924Z,58.90
2023-02-02T01:43:57.693Z,59.10
2023-02-02T01:46:27.445Z,58.80
2023-02-02T01:48:59.545Z,58.80
2023-02-02T01:51:33.598Z,58.80
2023-02-02T01:54:01.336Z,58.80
2023-02-02T01:56:32.594Z,58.60
2023-02-02T01:59:00.476Z,58.70
2023-02-02T02:01:27.702Z,58.50
2023-02-02T02:03:55.430Z,58.80
2023-02-02T02:06:22.557Z,58.80
2023-02-02T02:08:54.744Z,58.70
2023-02-02T02:11:22.263Z,58.50
2023-02-02T02:13:50.254Z,58.30
2023-02-02T02:16:24.695Z,58.30
2023-02-02T02:19:01.947Z,57.90
2023-02-02T02:21:48.897Z,57.80
2023-02-02T02:24:47.992Z,58.10
2023-02-02T02:27:38.456Z,58.40
2023-02-02T02:30:24.665Z,58.30
2023-02-02T02:32:59.684Z,57.90
2023-02-02T02:35:33.034Z,58.00
2023-02-02T02:38:07.682Z,58.00
2023-02-02T02:40:40.103Z,58.00
2023-02-02T02:43:10.777Z,58.00
2023-02-02T02:45:39.144Z,58.10
2023-02-02T02:48:08.545Z,58.00
2023-02-02T02:50:35.208Z,58.00
2023-02-02T02:53:05.643Z,58.10
2023-02-02T02:55:40.273Z,58.00
2023-02-02T02:58:11.205Z,58.10
2023-02-02T03:00:53.993Z,58.00
2023-02-02T03:03:31.255Z,57.80
2023-02-02T03:06:12.539Z,57.70
2023-02-02T03:08:43.852Z,58.10
2023-02-02T03:11:13.096Z,58.00
2023-02-02T03:13:41.069Z,57.70
2023-02-02T03:16:08.855Z,57.60
2023-02-02T03:18:36.994Z,57.70
2023-02-02T03:21:04.057Z,57.40
2023-02-02T03:23:30.764Z,57.60
2023-02-02T03:25:57.469Z,57.50
2023-02-02T03:28:24.988Z,57.50
2023-02-02T03:30:53.295Z,57.60
2023-02-02T03:33:20.525Z,57.90
2023-02-02T03:35:48.530Z,57.80
2023-02-02T03:38:15.227Z,57.50
2023-02-02T03:40:42.013Z,57.70
2023-02-02T03:43:09.062Z,57.70
2023-02-02T03:45:36.452Z,57.60
2023-02-02T03:48:04.362Z,58.00
2023-02-02T03:50:31.086Z,57.70
2023-02-02T03:52:59.098Z,57.50
2023-02-02T03:55:26.025Z,57.50
2023-02-02T03:57:52.961Z,57.40
2023-02-02T04:00:20.497Z,57.60
2023-02-02T04:02:47.202Z,57.70
2023-02-02T04:05:13.936Z,57.80
2023-02-02T04:07:40.620Z,57.80
2023-02-02T04:10:10.135Z,57.90
2023-02-02T04:12:36.777Z,57.90
2023-02-02T04:15:04.048Z,57.80
2023-02-02T04:17:30.714Z,57.70
2023-02-02T04:19:57.390Z,57.90
2023-02-02T04:22:24.141Z,58.00
2023-02-02T04:24:50.841Z,57.80
2023-02-02T04:27:18.854Z,58.20
2023-02-02T04:29:45.579Z,57.70
2023-02-02T04:32:13.985Z,57.90
2023-02-02T04:34:40.784Z,57.80
2023-02-02T04:37:07.514Z,58.10
2023-02-02T04:39:34.408Z,58.00
2023-02-02T04:42:01.053Z,58.00
2023-02-02T04:44:29.064Z,58.10
2023-02-02T04:46:55.761Z,58.00
2023-02-02T04:49:22.421Z,58.10
2023-02-02T04:51:49.085Z,58.20
2023-02-02T04:54:15.902Z,58.40
2023-02-02T04:56:42.589Z,58.20
2023-02-02T04:59:09.266Z,58.30
2023-02-02T05:01:37.341Z,58.40
2023-02-02T05:04:04.214Z,58.30
2023-02-02T05:06:30.896Z,58.30
2023-02-02T05:08:57.569Z,58.30
2023-02-02T05:11:24.609Z,58.30
2023-02-02T05:13:53.256Z,58.30
2023-02-02T05:16:21.151Z,58.20
2023-02-02T05:18:51.443Z,58.20
2023-02-02T05:21:18.443Z,58.20
2023-02-02T05:23:45.151Z,58.30
2023-02-02T05:26:14.758Z,58.30
2023-02-02T05:28:41.493Z,58.40
2023-02-02T05:31:08.232Z,58.20
2023-02-02T05:33:34.937Z,58.30
2023-02-02T05:36:03.303Z,58.10
2023-02-02T05:38:29.991Z,58.20
2023-02-02T05:40:56.730Z,58.10
2023-02-02T05:43:25.758Z,58.50
2023-02-02T05:45:52.546Z,58.20
2023-02-02T05:48:19.637Z,58.20
2023-02-02T05:50:49.366Z,58.50
2023-02-02T05:53:17.522Z,58.50
2023-02-02T05:55:44.182Z,58.30
2023-02-02T05:58:10.817Z,58.20
2023-02-02T06:00:37.473Z,58.20
2023-02-02T06:03:04.446Z,58.30
2023-02-02T06:05:31.159Z,58.30
2023-02-02T06:07:57.845Z,58.20
2023-02-02T06:10:25.957Z,58.20
2023-02-02T06:12:52.777Z,58.40
2023-02-02T06:15:19.464Z,58.40
2023-02-02T06:17:46.115Z,58.30
2023-02-02T06:20:13.290Z,58.40
2023-02-02T06:22:40.122Z,58.40
2023-02-02T06:25:07.615Z,58.30
2023-02-02T06:27:35.749Z,58.30
2023-02-02T06:30:02.538Z,58.50
2023-02-02T06:32:29.640Z,58.60
2023-02-02T06:34:56.377Z,58.70
2023-02-02T06:37:23.239Z,58.80
2023-02-02T06:39:49.892Z,58.80
2023-02-02T06:42:21.795Z,58.90
2023-02-02T06:44:49.998Z,58.80
2023-02-02T06:47:17.216Z,58.90
2023-02-02T06:49:43.952Z,59.00
2023-02-02T06:52:10.637Z,59.10
2023-02-02T06:54:37.291Z,59.10
2023-02-02T06:57:04.115Z,59.20
2023-02-02T06:59:30.774Z,59.30
2023-02-02T07:01:58.804Z,59.30
2023-02-02T07:04:25.529Z,59.20
2023-02-02T07:06:52.228Z,59.10
2023-02-02T07:09:18.891Z,59.10
2023-02-02T07:11:45.674Z,59.20
2023-02-02T07:14:12.404Z,59.10
2023-02-02T07:16:39.142Z,59.10
2023-02-02T07:19:07.153Z,59.10
2023-02-02T07:21:33.995Z,59.10
2023-02-02T07:24:00.891Z,59.30
2023-02-02T07:26:27.733Z,59.50
2023-02-02T07:28:54.455Z,59.50
2023-02-02T07:31:23.456Z,59.40
2023-02-02T07:33:50.385Z,59.30
2023-02-02T07:36:20.176Z,59.30
2023-02-02T07:38:48.366Z,59.30
2023-02-02T07:41:15.823Z,59.30
2023-02-02T07:43:42.663Z,59.20
2023-02-02T07:46:10.699Z,59.40
2023-02-02T07:48:37.579Z,59.50
2023-02-02T07:51:05.928Z,59.50
2023-02-02T07:53:34.737Z,59.50
2023-02-02T07:56:09.779Z,59.40
2023-02-02T07:58:36.719Z,59.20
2023-02-02T08:01:04.765Z,59.40
2023-02-02T08:03:32.064Z,59.40
2023-02-02T08:05:59.326Z,59.50
2023-02-02T08:08:26.245Z,59.60
2023-02-02T08:10:54.549Z,59.50
2023-02-02T08:13:21.537Z,59.50
2023-02-02T08:15:48.443Z,59.50
2023-02-02T08:18:15.128Z,59.60
2023-02-02T08:20:41.788Z,59.80
2023-02-02T08:23:08.623Z,59.80
2023-02-02T08:25:35.314Z,59.90
2023-02-02T08:28:03.398Z,59.70
2023-02-02T08:30:30.086Z,59.80
2023-02-02T08:32:56.748Z,59.80
2023-02-02T08:35:23.710Z,59.70
2023-02-02T08:37:51.421Z,59.80
2023-02-02T08:40:18.590Z,59.70
2023-02-02T08:42:45.308Z,59.80
2023-02-02T08:46:01.460Z,59.90
2023-02-02T08:48:11.185Z,59.90
2023-02-02T08:50:38.615Z,59.70
2023-02-02T08:53:05.338Z,59.70
2023-02-02T08:55:32.016Z,59.70
2023-02-02T08:57:58.731Z,59.60
2023-02-02T09:00:27.076Z,59.40
2023-02-02T09:02:53.784Z,59.60
2023-02-02T09:05:20.519Z,59.80
2023-02-02T09:07:49.439Z,59.50
2023-02-02T09:10:16.713Z,59.30
2023-02-02T09:12:43.417Z,59.10
2023-02-02T09:15:10.676Z,59.40
2023-02-02T09:17:38.706Z,59.40
2023-02-02T09:20:06.383Z,59.50
2023-02-02T09:22:33.419Z,59.80
2023-02-02T09:25:00.106Z,59.60
2023-02-02T09:27:26.854Z,59.40
2023-02-02T09:29:53.504Z,59.40
2023-02-02T09:32:20.271Z,59.20
2023-02-02T09:34:48.332Z,59.20
2023-02-02T09:37:14.981Z,59.30
2023-02-02T09:39:41.708Z,59.10
2023-02-02T09:42:35.163Z,58.90
2023-02-02T09:45:10.892Z,58.70
2023-02-02T09:47:52.866Z,59.10
2023-02-02T09:50:34.298Z,58.90
2023-02-02T09:53:07.766Z,59.40
2023-02-02T09:55:37.741Z,59.40
2023-02-02T09:58:10.856Z,58.80
2023-02-02T10:00:41.547Z,58.20
2023-02-02T10:03:15.494Z,57.90
2023-02-02T10:05:50.342Z,58.40
2023-02-02T10:08:34.330Z,58.50
2023-02-02T10:11:07.732Z,57.90
2023-02-02T10:13:38.005Z,58.30
2023-02-02T10:16:10.175Z,58.50
2023-02-02T10:18:42.671Z,58.60
2023-02-02T10:21:18.350Z,58.50
2023-02-02T10:23:45.850Z,58.60
2023-02-02T10:26:19.001Z,58.20
2023-02-02T10:29:03.204Z,57.90
2023-02-02T10:31:41.528Z,58.10
2023-02-02T10:34:17.503Z,58.20
2023-02-02T10:36:58.916Z,58.40
2023-02-02T10:39:36.111Z,58.40
2023-02-02T10:42:12.979Z,58.60
2023-02-02T10:44:48.737Z,58.50
2023-02-02T10:47:23.927Z,58.40
2023-02-02T10:50:00.034Z,58.20
2023-02-02T10:52:32.176Z,58.30
2023-02-02T10:55:04.341Z,57.80
2023-02-02T10:57:44.075Z,57.40
2023-02-02T11:00:22.260Z,57.80
2023-02-02T11:02:49.901Z,57.40
2023-02-02T11:05:21.509Z,57.40
2023-02-02T11:07:51.210Z,57.40
2023-02-02T11:10:17.863Z,57.50
2023-02-02T11:12:46.037Z,58.00
2023-02-02T11:15:25.658Z,57.00
2023-02-02T11:17:52.411Z,56.10
2023-02-02T11:20:24.107Z,56.80
2023-02-02T11:23:02.792Z,56.70
2023-02-02T11:25:32.749Z,57.00
2023-02-02T11:28:01.198Z,56.00
2023-02-02T11:30:31.460Z,56.20
2023-02-02T11:32:58.299Z,56.40
2023-02-02T11:35:26.390Z,55.90
2023-02-02T11:38:09.379Z,55.80
2023-02-02T11:40:38.074Z,55.30
2023-02-02T11:43:14.633Z,54.30
2023-02-02T11:45:45.126Z,53.50
2023-02-02T11:48:17.432Z,54.00
2023-02-02T11:50:49.957Z,54.00
2023-02-02T11:53:27.260Z,53.30
2023-02-02T11:55:55.653Z,53.50
2023-02-02T11:58:25.337Z,52.00
2023-02-02T12:00:55.065Z,51.90
2023-02-02T12:03:27.578Z,51.90
2023-02-02T12:05:54.366Z,52.50
2023-02-02T12:08:21.533Z,53.00
2023-02-02T12:10:56.546Z,52.80
2023-02-02T12:13:50.087Z,52.40
2023-02-02T12:16:39.480Z,52.30
2023-02-02T12:19:22.718Z,52.20
2023-02-02T12:21:58.688Z,51.50
2023-02-02T12:24:31.268Z,52.30
2023-02-02T12:27:10.867Z,52.10
2023-02-02T12:29:51.751Z,51.30
2023-02-02T12:32:27.830Z,53.10
2023-02-02T12:35:09.177Z,51.40
2023-02-02T12:37:48.718Z,50.90
2023-02-02T12:40:38.123Z,51.90
2023-02-02T12:43:14.518Z,51.70
2023-02-02T12:46:00.207Z,52.60
2023-02-02T12:48:44.528Z,51.90
2023-02-02T12:51:26.634Z,52.00
2023-02-02T12:54:33.503Z,52.40
2023-02-02T12:57:08.457Z,52.60
2023-02-02T13:00:02.954Z,53.20
2023-02-02T13:02:36.247Z,53.30
2023-02-02T13:05:19.066Z,53.00
2023-02-02T13:07:50.485Z,52.10
2023-02-02T13:10:24.808Z,51.70
2023-02-02T13:12:55.546Z,52.80
2023-02-02T13:15:29.327Z,52.30
2023-02-02T13:17:58.700Z,52.30
2023-02-02T13:20:37.942Z,51.70
2023-02-02T13:23:09.253Z,52.70
2023-02-02T13:25:42.805Z,51.80
2023-02-02T13:28:17.574Z,52.20
2023-02-02T13:30:49.924Z,52.50
2023-02-02T13:33:23.114Z,53.30
2023-02-02T13:35:53.471Z,53.80
2023-02-02T13:38:22.655Z,54.10
2023-02-02T13:40:51.505Z,53.60
2023-02-02T13:43:30.469Z,53.20
2023-02-02T13:46:08.544Z,52.80
2023-02-02T13:48:42.607Z,52.00
2023-02-02T13:51:34.365Z,52.20
2023-02-02T13:54:39.573Z,52.50
2023-02-02T13:57:18.779Z,53.10
2023-02-02T13:59:54.245Z,52.30
2023-02-02T14:02:30.650Z,51.80
2023-02-02T14:05:00.835Z,52.40
2023-02-02T14:07:36.219Z,52.40
2023-02-02T14:10:03.219Z,50.90
2023-02-02T14:12:32.731Z,51.10
2023-02-02T14:15:00.241Z,51.90
2023-02-02T14:17:51.996Z,52.00
2023-02-02T14:20:44.898Z,51.60
2023-02-02T14:23:52.217Z,52.40
2023-02-02T14:26:40.808Z,52.30
2023-02-02T14:29:34.564Z,53.00
2023-02-02T14:32:03.064Z,53.50
2023-02-02T14:34:33.900Z,53.80
2023-02-02T14:37:34.785Z,54.50
2023-02-02T14:40:24.176Z,53.80
2023-02-02T14:43:02.101Z,53.30
2023-02-02T14:45:31.218Z,53.30
2023-02-02T14:48:00.657Z,53.10
2023-02-02T14:50:40.527Z,53.50
2023-02-02T14:53:16.169Z,53.70
2023-02-02T14:55:56.621Z,53.70
2023-02-02T14:58:30.743Z,53.40
2023-02-02T15:01:06.758Z,54.20
2023-02-02T15:03:49.074Z,54.00
2023-02-02T15:06:29.448Z,54.60
2023-02-02T15:09:41.078Z,53.70
2023-02-02T15:12:32.945Z,53.40
2023-02-02T15:15:11.477Z,54.00
2023-02-02T15:17:49.892Z,54.20
2023-02-02T15:20:24.186Z,54.00
2023-02-02T15:22:57.389Z,54.40
2023-02-02T15:25:28.068Z,55.00
2023-02-02T15:27:57.785Z,54.80
2023-02-02T15:30:26.244Z,54.50
2023-02-02T15:32:53.496Z,54.40
2023-02-02T15:35:24.009Z,54.80
2023-02-02T15:37:58.092Z,54.00
2023-02-02T15:40:26.564Z,54.20
2023-02-02T15:42:58.418Z,54.40
2023-02-02T15:45:39.910Z,54.60
2023-02-02T15:48:16.875Z,54.20
2023-02-02T15:50:45.143Z,54.30
2023-02-02T15:53:19.255Z,54.50
2023-02-02T15:55:46.049Z,54.40
2023-02-02T15:58:31.955Z,54.30
2023-02-02T16:01:05.102Z,54.30
2023-02-02T16:03:42.019Z,54.30
2023-02-02T16:06:09.316Z,54.10
2023-02-02T16:08:38.951Z,54.30
2023-02-02T16:11:11.492Z,54.30
2023-02-02T16:13:39.221Z,54.50
2023-02-02T16:16:21.189Z,54.70
2023-02-02T16:18:48.236Z,54.80
2023-02-02T16:21:23.729Z,55.70
2023-02-02T16:23:53.061Z,54.70
2023-02-02T16:26:24.150Z,54.60
2023-02-02T16:28:51.030Z,54.60
2023-02-02T16:31:17.970Z,54.60
2023-02-02T16:33:45.476Z,54.50
2023-02-02T16:36:25.012Z,54.70
2023-02-02T16:38:55.147Z,54.50
2023-02-02T16:41:27.697Z,54.80
2023-02-02T16:43:54.552Z,54.80
2023-02-02T16:46:43.635Z,54.80
2023-02-02T16:49:17.515Z,54.70
2023-02-02T16:51:46.051Z,54.80
2023-02-02T16:54:19.740Z,55.10
2023-02-02T16:56:49.380Z,55.20
2023-02-02T16:59:20.137Z,55.30
2023-02-02T17:01:49.774Z,55.60
2023-02-02T17:04:20.951Z,55.50
2023-02-02T17:06:52.762Z,55.40
2023-02-02T17:09:34.166Z,55.40
2023-02-02T17:12:03.709Z,55.40
2023-02-02T17:14:34.129Z,55.60
2023-02-02T17:17:04.844Z,55.70
2023-02-02T17:19:32.034Z,55.50
2023-02-02T17:22:02.023Z,55.60
2023-02-02T17:24:30.205Z,55.70
2023-02-02T17:26:56.991Z,55.80
2023-02-02T17:29:23.706Z,55.70
2023-02-02T17:31:50.562Z,55.80
2023-02-02T17:34:17.531Z,55.80
2023-02-02T17:36:44.192Z,55.80
2023-02-02T17:39:11.756Z,55.80
2023-02-02T17:41:39.885Z,56.70
2023-02-02T17:44:06.690Z,56.70
2023-02-02T17:46:33.421Z,56.70
2023-02-02T17:49:00.274Z,56.70
2023-02-02T17:51:26.947Z,56.70
2023-02-02T17:53:53.990Z,56.70
2023-02-02T17:56:20.720Z,56.60
2023-02-02T17:58:48.829Z,56.60
2023-02-02T18:01:15.614Z,56.60
2023-02-02T18:03:45.667Z,56.60
2023-02-02T18:06:12.343Z,56.70
2023-02-02T18:08:39.045Z,56.70
2023-02-02T18:11:05.947Z,56.70
2023-02-02T18:13:32.897Z,56.80
2023-02-02T18:16:00.922Z,56.80
2023-02-02T18:18:27.769Z,56.70
2023-02-02T18:20:54.400Z,56.80
2023-02-02T18:23:21.087Z,56.80
2023-02-02T18:25:47.769Z,56.80
2023-02-02T18:28:16.836Z,56.90
2023-02-02T18:30:44.540Z,56.90
2023-02-02T18:33:13.810Z,56.90
2023-02-02T18:35:41.484Z,56.90
2023-02-02T18:38:08.518Z,57.10
2023-02-02T18:40:35.253Z,57.00
2023-02-02T18:43:01.907Z,57.00
2023-02-02T18:45:28.619Z,57.10
2023-02-02T18:47:55.298Z,57.30
2023-02-02T18:50:23.329Z,57.20
2023-02-02T18:52:50.018Z,57.30
2023-02-02T18:55:16.873Z,57.30
2023-02-02T18:57:43.535Z,57.30
2023-02-02T19:00:11.697Z,57.40
2023-02-02T19:02:38.911Z,57.40
2023-02-02T19:05:05.899Z,57.40
2023-02-02T19:07:33.901Z,57.50
2023-02-02T19:10:00.609Z,57.50
2023-02-02T19:12:27.336Z,57.50
2023-02-02T19:14:55.622Z,57.60
2023-02-02T19:17:23.228Z,57.60
2023-02-02T19:19:50.141Z,57.70
2023-02-02T19:22:19.479Z,57.70
2023-02-02T19:24:48.311Z,57.90
2023-02-02T19:27:17.465Z,58.40
2023-02-02T19:29:45.009Z,57.80
2023-02-02T19:32:15.222Z,57.90
2023-02-02T19:34:42.076Z,57.90
2023-02-02T19:37:22.927Z,58.00
2023-02-02T19:39:53.496Z,58.10
2023-02-02T19:42:20.163Z,58.00
2023-02-02T19:44:46.920Z,58.10
2023-02-02T19:47:21.019Z,58.10
2023-02-02T19:49:47.731Z,58.20
2023-02-02T19:52:18.788Z,58.20
2023-02-02T19:54:47.062Z,58.20
2023-02-02T19:57:23.393Z,58.30
2023-02-02T19:59:51.282Z,58.30
2023-02-02T20:02:29.432Z,58.30
2023-02-02T20:05:01.838Z,58.40
2023-02-02T20:07:29.116Z,58.30
2023-02-02T20:10:06.038Z,58.40
2023-02-02T20:12:34.032Z,58.60
2023-02-02T20:15:00.679Z,58.70
2023-02-02T20:17:29.875Z,58.70
2023-02-02T20:19:56.565Z,58.80
2023-02-02T20:22:26.054Z,58.70
2023-02-02T20:24:53.451Z,58.70
2023-02-02T20:27:22.403Z,58.60
2023-02-02T20:29:52.933Z,58.70
2023-02-02T20:32:23.256Z,58.70
2023-02-02T20:34:51.093Z,58.70
2023-02-02T20:37:22.794Z,58.70
2023-02-02T20:39:54.162Z,58.70
2023-02-02T20:42:21.373Z,58.70
2023-02-02T20:44:49.641Z,58.60
2023-02-02T20:47:16.554Z,58.70
2023-02-02T20:49:43.961Z,58.70
2023-02-02T20:52:13.839Z,58.70
2023-02-02T20:54:40.691Z,58.60
2023-02-02T20:57:07.400Z,58.60
2023-02-02T20:59:34.141Z,58.50
2023-02-02T21:02:02.288Z,58.60
2023-02-02T21:04:29.029Z,58.60
2023-02-02T21:06:55.693Z,58.60
2023-02-02T21:09:22.452Z,58.60
2023-02-02T21:11:49.185Z,58.60
2023-02-02T21:14:16.030Z,58.60
2023-02-02T21:16:43.092Z,58.50
2023-02-02T21:19:11.111Z,58.50
2023-02-02T21:21:37.871Z,58.40
2023-02-02T21:24:05.138Z,58.40
2023-02-02T21:26:31.832Z,58.40
2023-02-02T21:28:58.577Z,58.40
2023-02-02T21:31:25.928Z,58.30
2023-02-02T21:33:52.809Z,58.30
2023-02-02T21:36:30.308Z,58.30
2023-02-02T21:39:02.570Z,58.30
2023-02-02T21:41:32.018Z,58.50
2023-02-02T21:43:59.271Z,58.50
2023-02-02T21:46:32.714Z,58.50
2023-02-02T21:49:00.641Z,58.50
2023-02-02T21:51:33.918Z,58.50
2023-02-02T21:54:14.268Z,58.50
2023-02-02T21:56:42.044Z,58.60
2023-02-02T21:59:12.623Z,58.60
2023-02-02T22:01:40.218Z,58.60
2023-02-02T22:04:19.671Z,58.50
2023-02-02T22:06:50.320Z,58.40
2023-02-02T22:09:20.593Z,58.50
2023-02-02T22:11:50.341Z,58.40
2023-02-02T22:14:20.083Z,58.30
2023-02-02T22:16:49.354Z,58.20
2023-02-02T22:19:25.467Z,58.30
2023-02-02T22:21:54.150Z,58.30
2023-02-02T22:24:21.115Z,58.30
2023-02-02T22:26:47.973Z,58.30
2023-02-02T22:29:17.999Z,58.20
2023-02-02T22:31:44.644Z,58.20
2023-02-02T22:34:11.398Z,58.30
2023-02-02T22:36:38.085Z,58.30
2023-02-02T22:39:06.081Z,58.20
2023-02-02T22:41:32.883Z,59.10
2023-02-02T22:43:59.654Z,58.40
2023-02-02T22:46:26.330Z,58.50
2023-02-02T22:48:52.996Z,58.40
2023-02-02T22:51:19.670Z,58.30
2023-02-02T22:53:46.328Z,58.20
2023-02-02T22:56:14.353Z,58.30
2023-02-02T22:58:41.197Z,58.30
2023-02-02T23:01:07.898Z,58.30
2023-02-02T23:03:34.715Z,58.30
2023-02-02T23:06:01.422Z,58.30
2023-02-02T23:08:28.103Z,58.40
2023-02-02T23:10:54.904Z,58.40
2023-02-02T23:13:22.975Z,58.20
2023-02-02T23:15:49.776Z,58.30
2023-02-02T23:18:16.595Z,58.20
2023-02-02T23:20:43.253Z,58.20
2023-02-02T23:23:09.962Z,58.10
2023-02-02T23:25:36.695Z,58.40
2023-02-02T23:28:03.501Z,58.10
2023-02-02T23:30:31.677Z,57.90
2023-02-02T23:32:58.434Z,57.90
2023-02-02T23:35:25.111Z,57.90
2023-02-02T23:37:51.772Z,57.90
2023-02-02T23:40:18.921Z,57.90
2023-02-02T23:42:45.620Z,58.00
2023-02-02T23:45:13.170Z,58.00
2023-02-02T23:47:42.615Z,58.00
2023-02-02T23:50:10.970Z,58.00
2023-02-02T23:52:38.191Z,58.00
2023-02-02T23:55:06.034Z,58.00
2023-02-02T23:57:32.935Z,57.90
2023-02-02T23:59:59.640Z,57.90
